Time;durP1;ratioP1;P1;durP2;ratioP2;P2;SDS_P1;SDS_P2;PMS_P1;PMS_P2;Temp;Humidity;BMP_temperature;BMP_pressure;BME280_temperature;BME280_humidity;BME280_pressure;Samples;Min_cycle;Max_cycle;Signal;HPM_P1;HPM_P2
2022/09/05 00:00:08;;;;;;;4.30;3.38;;;;;;;23.48;60.36;101963.16;5012883;28;20025;-81
2022/09/05 00:02:37;;;;;;;4.82;3.45;;;;;;;23.52;60.15;101965.00;4998543;28;20063;-81
2022/09/05 00:05:15;;;;;;;5.20;3.47;;;;;;;23.54;60.23;101961.50;5014319;28;20017;-81
2022/09/05 00:08:17;;;;;;;3.47;3.17;;;;;;;23.53;60.20;101965.00;5032896;28;20045;-81
2022/09/05 00:11:02;;;;;;;5.07;3.40;;;;;;;23.53;60.27;101964.13;5033514;28;20130;-82
2022/09/05 00:13:35;;;;;;;3.72;3.15;;;;;;;23.53;59.98;101958.78;5031155;28;20021;-82
2022/09/05 00:16:46;;;;;;;5.95;3.42;;;;;;;23.57;59.90;101966.88;5015103;28;20078;-81
2022/09/05 00:19:35;;;;;;;3.80;3.00;;;;;;;23.53;60.00;101954.34;5021806;28;20046;-81
2022/09/05 00:22:21;;;;;;;4.43;3.38;;;;;;;23.52;59.88;101949.00;5031985;28;20049;-81
2022/09/05 00:25:16;;;;;;;4.82;3.33;;;;;;;23.50;60.03;101956.97;5026174;28;20084;-81
2022/09/05 00:27:59;;;;;;;3.50;2.90;;;;;;;23.56;59.71;101958.88;5022336;28;20438;-82
2022/09/05 00:30:29;;;;;;;5.00;3.17;;;;;;;23.52;59.72;101952.56;5032701;28;20487;-82
2022/09/05 00:33:10;;;;;;;8.07;3.53;;;;;;;23.55;59.65;101957.06;5005303;28;20029;-81
2022/09/05 00:36:31;;;;;;;3.63;2.90;;;;;;;23.57;59.77;101963.31;5032145;28;20091;-82
2022/09/05 00:39:05;;;;;;;3.88;2.80;;;;;;;23.52;59.66;101949.91;4999944;28;20037;-81
2022/09/05 00:41:31;;;;;;;4.43;3.25;;;;;;;23.56;59.68;101949.09;5014515;28;20479;-82
2022/09/05 00:43:57;;;;;;;;;;;;;;;23.45;59.88;101949.75;5015091;28;20100;-82
2022/09/05 00:46:26;;;;;;;6.47;3.10;;;;;;;23.28;59.86;101953.00;5034413;28;20418;-79
2022/09/05 00:49:02;;;;;;;4.55;3.25;;;;;;;23.02;60.22;101919.56;5009640;28;20037;-80
2022/09/05 00:51:33;;;;;;;3.95;3.28;;;;;;;23.38;60.09;101956.72;5044415;28;20021;-82
2022/09/05 00:54:23;;;;;;;4.63;3.03;;;;;;;23.20;60.20;101954.59;5034599;28;20140;-82
2022/09/05 00:57:12;;;;;;;5.55;3.20;;;;;;;23.45;59.71;101963.06;5023697;28;20040;-82
2022/09/05 01:00:12;;;;;;;4.07;3.28;;;;;;;23.46;59.62;101962.22;5031382;28;20144;-82
2022/09/05 01:03:08;;;;;;;5.68;3.03;;;;;;;23.44;59.82;101961.28;4972954;28;20037;-82
2022/09/05 01:05:53;;;;;;;3.83;2.95;;;;;;;23.45;59.78;101956.00;5031980;28;20384;-82
2022/09/05 01:08:37;;;;;;;3.03;2.72;;;;;;;23.45;59.87;101950.66;5012378;28;20490;-82
2022/09/05 01:11:10;;;;;;;3.35;2.88;;;;;;;23.45;60.04;101955.06;5028216;28;20030;-81
2022/09/05 01:13:47;;;;;;;4.32;3.15;;;;;;;23.45;60.02;101950.66;5030126;28;20030;-81
2022/09/05 01:16:21;;;;;;;;;;;;;;;23.32;60.30;101952.16;4998568;28;20033;-82
2022/09/05 01:19:05;;;;;;;3.42;3.13;;;;;;;23.40;60.14;101954.97;5014235;28;19913;-81
2022/09/05 01:21:43;;;;;;;5.50;3.45;;;;;;;23.26;60.37;101941.41;5032427;28;20045;-81
2022/09/05 01:24:11;;;;;;;3.53;2.95;;;;;;;23.38;60.18;101954.94;5012003;28;20118;-82
2022/09/05 01:26:59;;;;;;;5.40;3.22;;;;;;;23.36;60.31;101947.78;5030634;28;20105;-82
2022/09/05 01:29:33;;;;;;;4.80;3.28;;;;;;;23.42;60.13;101944.38;5030803;28;20499;-82
2022/09/05 01:32:20;;;;;;;4.50;2.80;;;;;;;23.24;60.54;101940.47;5011095;28;20121;-83
2022/09/05 01:34:54;;;;;;;4.07;3.10;;;;;;;23.36;60.22;101945.13;5012088;28;20017;-83
2022/09/05 01:37:55;;;;;;;3.45;2.80;;;;;;;23.43;59.89;101940.81;5031542;28;20573;-83
2022/09/05 01:40:45;;;;;;;3.90;3.10;;;;;;;23.42;60.12;101947.91;5034941;28;20033;-83
2022/09/05 01:43:38;;;;;;;3.75;3.13;;;;;;;23.41;60.01;101947.88;5031476;28;20030;-82
2022/09/05 01:46:27;;;;;;;4.20;3.28;;;;;;;23.41;60.25;101948.81;5031139;28;20618;-82
2022/09/05 01:48:55;;;;;;;4.07;3.17;;;;;;;23.44;60.06;101945.28;4990226;28;20041;-83
2022/09/05 01:51:20;;;;;;;4.50;3.10;;;;;;;23.43;60.09;101949.72;5032209;28;20053;-83
2022/09/05 01:53:46;;;;;;;;;;;;;;;23.41;59.97;101954.13;5013812;28;20057;-83
2022/09/05 01:56:20;;;;;;;4.72;2.97;;;;;;;23.41;60.11;101951.47;5037118;28;20570;-83
2022/09/05 01:59:00;;;;;;;4.00;2.90;;;;;;;23.38;60.23;101946.06;5030404;28;20633;-83
2022/09/05 02:01:44;;;;;;;3.72;2.90;;;;;;;23.25;60.27;101928.03;5022787;28;20029;-81
2022/09/05 02:04:46;;;;;;;3.38;2.72;;;;;;;23.37;60.08;101934.50;5012882;28;20045;-84
2022/09/05 02:07:33;;;;;;;4.03;3.00;;;;;;;23.36;59.98;101934.47;5029707;28;20585;-82
2022/09/05 02:10:35;;;;;;;4.47;2.90;;;;;;;23.41;59.97;101931.88;5030120;28;20483;-83
2022/09/05 02:13:40;;;;;;;3.30;2.80;;;;;;;23.37;60.28;101933.63;5030509;28;20025;-83
2022/09/05 02:16:25;;;;;;;3.53;2.70;;;;;;;23.35;59.94;101933.56;5002286;28;20548;-82
2022/09/05 02:19:08;;;;;;;3.28;2.97;;;;;;;23.34;59.98;101930.88;5005901;28;20419;-82
2022/09/05 02:21:36;;;;;;;4.15;2.72;;;;;;;23.31;60.18;101920.16;5030276;28;20512;-83
2022/09/05 02:24:20;;;;;;;3.95;2.90;;;;;;;23.30;60.10;101924.56;5028177;28;20407;-82
2022/09/05 02:26:58;;;;;;;3.17;2.63;;;;;;;23.32;60.12;101927.28;5011819;28;20037;-82
2022/09/05 02:29:35;;;;;;;5.32;2.83;;;;;;;23.26;60.18;101929.81;5026809;28;20147;-81
2022/09/05 02:32:11;;;;;;;3.53;2.65;;;;;;;23.10;60.46;101940.16;5013365;28;20027;-81
2022/09/05 02:34:49;;;;;;;3.22;2.65;;;;;;;23.09;59.94;101913.47;5010253;28;20497;-81
2022/09/05 02:37:41;;;;;;;3.88;2.80;;;;;;;22.93;60.70;101905.13;5020416;28;20062;-82
2022/09/05 02:40:37;;;;;;;3.83;2.90;;;;;;;23.01;60.30;101924.00;5003650;28;20037;-82
2022/09/05 02:43:15;;;;;;;4.15;3.22;;;;;;;23.01;60.52;101924.00;5011481;28;20021;-82
2022/09/05 02:46:02;;;;;;;3.33;2.72;;;;;;;22.96;59.84;101926.53;5013302;28;20030;-81
2022/09/05 02:48:46;;;;;;;3.00;2.70;;;;;;;22.82;60.28;101901.34;5028954;28;20029;-82
2022/09/05 02:51:15;;;;;;;2.90;2.60;;;;;;;22.87;60.34;101928.97;5029730;28;20033;-81
2022/09/05 02:53:49;;;;;;;3.08;2.60;;;;;;;22.93;60.17;101922.88;5012853;28;20030;-81
2022/09/05 02:56:15;;;;;;;3.45;2.65;;;;;;;22.96;60.09;101922.94;5029915;28;20029;-81
2022/09/05 02:59:04;;;;;;;4.30;2.58;;;;;;;22.92;60.12;101908.69;5030476;28;20037;-82
2022/09/05 03:02:00;;;;;;;5.03;2.75;;;;;;;22.89;60.25;101927.25;5029224;28;20116;-82
2022/09/05 03:04:44;;;;;;;3.47;2.60;;;;;;;22.91;59.67;101921.97;5004337;28;20559;-82
2022/09/05 03:07:16;;;;;;;4.05;2.83;;;;;;;23.02;59.58;101908.91;5028225;28;20040;-80
2022/09/05 03:09:58;;;;;;;4.28;2.78;;;;;;;22.98;59.95;101903.44;5028600;28;20041;-80
2022/09/05 03:12:42;;;;;;;3.97;2.75;;;;;;;23.09;59.60;101914.41;5019925;28;20044;-81
2022/09/05 03:15:35;;;;;;;3.10;2.58;;;;;;;23.15;59.41;101898.50;5029445;28;20061;-81
2022/09/05 03:18:07;;;;;;;4.65;2.70;;;;;;;23.17;59.50;101902.09;4995809;28;20025;-81
2022/09/05 03:20:50;;;;;;;3.15;2.60;;;;;;;23.17;59.53;101904.75;5031514;28;20044;-82
2022/09/05 03:23:26;;;;;;;3.42;2.50;;;;;;;23.17;59.41;101912.75;5012680;28;20034;-81
2022/09/05 03:26:07;;;;;;;4.55;2.72;;;;;;;23.17;59.59;101910.09;5012492;28;20083;-81
2022/09/05 03:29:11;;;;;;;4.43;2.85;;;;;;;23.20;59.35;101911.03;5000610;28;20025;-81
2022/09/05 03:32:02;;;;;;;4.35;2.58;;;;;;;23.14;59.64;101917.16;5025205;28;20036;-81
2022/09/05 03:34:42;;;;;;;3.50;2.83;;;;;;;23.14;59.66;101923.38;5012282;28;20037;-81
2022/09/05 03:37:19;;;;;;;3.10;2.60;;;;;;;23.14;59.56;101923.38;5015013;28;20029;-80
2022/09/05 03:40:19;;;;;;;3.22;2.83;;;;;;;22.90;59.86;101929.06;5032789;28;20491;-81
2022/09/05 03:43:02;;;;;;;4.43;2.97;;;;;;;22.95;59.81;101931.81;5015684;28;20053;-79
2022/09/05 03:45:41;;;;;;;3.88;2.60;;;;;;;22.81;59.82;101904.88;5033002;28;20030;-80
2022/09/05 03:48:13;;;;;;;3.22;2.90;;;;;;;22.98;59.27;101934.53;5014081;28;20469;-80
2022/09/05 03:50:49;;;;;;;3.35;2.63;;;;;;;22.91;59.76;101943.28;5034293;28;20029;-80
2022/09/05 03:53:33;;;;;;;;;;;;;;;22.76;59.67;101951.81;5033247;28;20032;-81
2022/09/05 03:56:22;;;;;;;4.82;2.90;;;;;;;22.58;59.63;101965.59;5031293;28;19913;-82
2022/09/05 03:59:08;;;;;;;4.88;3.10;;;;;;;22.67;59.87;101963.16;4997912;28;20022;-80
2022/09/05 04:04:27;;;;;;;4.88;2.80;;;;;;;22.71;59.63;101985.41;5017195;28;20822;-81
2022/09/05 04:06:56;;;;;;;4.78;3.20;;;;;;;22.76;59.29;101986.44;5032560;28;20104;-82
2022/09/05 04:09:38;;;;;;;4.65;2.70;;;;;;;22.94;59.14;101981.53;5015190;28;20056;-81
2022/09/05 04:12:36;;;;;;;3.10;2.80;;;;;;;22.96;58.92;101973.56;5030770;28;20028;-81
2022/09/05 04:15:16;;;;;;;3.20;2.80;;;;;;;22.90;58.95;101968.09;5031068;28;20124;-81
2022/09/05 04:17:46;;;;;;;5.25;3.00;;;;;;;23.08;58.84;101978.31;5015643;28;20438;-81
2022/09/05 04:20:14;;;;;;;3.67;2.80;;;;;;;22.96;59.30;101989.53;5013272;28;20032;-80
2022/09/05 04:23:00;;;;;;;2.95;2.65;;;;;;;22.91;59.38;101989.44;5034629;28;20105;-80
2022/09/05 04:25:51;;;;;;;2.70;2.45;;;;;;;22.85;59.46;101988.41;5028660;28;20423;-82
2022/09/05 04:28:29;;;;;;;3.58;2.70;;;;;;;22.93;59.17;101992.16;5033416;28;20034;-81
2022/09/05 04:30:59;;;;;;;3.50;2.90;;;;;;;23.02;58.91;101989.72;5034194;28;20036;-81
2022/09/05 04:33:35;;;;;;;3.30;2.67;;;;;;;23.04;59.09;101995.97;5033473;28;20036;-82
2022/09/05 04:36:18;;;;;;;3.08;2.78;;;;;;;23.07;58.94;101997.81;5013438;28;20021;-81
2022/09/05 04:38:45;;;;;;;3.92;2.78;;;;;;;22.92;58.80;101995.66;5031375;28;20025;-80
2022/09/05 04:41:19;;;;;;;3.40;2.50;;;;;;;23.01;59.14;102006.59;5030462;28;20033;-81
2022/09/05 04:43:54;;;;;;;3.40;2.58;;;;;;;23.00;58.89;102009.16;5030874;28;20045;-84
2022/09/05 04:46:23;;;;;;;2.70;2.50;;;;;;;23.01;59.01;101990.59;5001449;28;20507;-84
2022/09/05 04:48:58;;;;;;;2.75;2.55;;;;;;;23.01;59.12;102009.25;5030462;28;20056;-82
2022/09/05 04:51:58;;;;;;;3.40;2.90;;;;;;;23.02;59.29;102011.03;5030531;28;20087;-83
2022/09/05 04:54:28;;;;;;;3.17;2.55;;;;;;;23.03;59.19;102007.53;5014717;28;20021;-82
2022/09/05 04:57:16;;;;;;;2.80;2.45;;;;;;;22.97;59.33;102010.00;5017626;28;20033;-83
2022/09/05 05:00:02;;;;;;;4.60;3.10;;;;;;;22.88;59.38;102008.03;5032718;28;20403;-84
2022/09/05 05:02:36;;;;;;;4.22;2.83;;;;;;;22.92;59.39;101995.66;5014791;28;20017;-84
2022/09/05 05:05:06;;;;;;;3.22;2.67;;;;;;;22.93;59.25;101997.47;5032943;28;20450;-84
2022/09/05 05:07:56;;;;;;;4.32;2.65;;;;;;;22.94;59.36;102004.59;5015383;28;20021;-83
2022/09/05 05:10:36;;;;;;;3.67;2.97;;;;;;;22.98;59.35;101998.47;5015322;28;20033;-85
2022/09/05 05:13:16;;;;;;;2.90;2.50;;;;;;;23.02;59.26;101996.81;5012874;28;20413;-82
2022/09/05 05:15:47;;;;;;;3.55;2.70;;;;;;;22.91;59.48;101994.78;5014744;28;20025;-81
2022/09/05 05:18:18;;;;;;;3.00;2.53;;;;;;;22.86;59.70;101999.09;5017464;28;20033;-82
2022/09/05 05:20:52;;;;;;;3.13;2.80;;;;;;;22.87;59.48;101989.34;5012018;28;20091;-84
2022/09/05 05:23:40;;;;;;;2.72;2.35;;;;;;;22.81;59.19;101982.09;5032626;28;20021;-85
2022/09/05 05:26:10;;;;;;;4.15;3.00;;;;;;;22.81;58.79;101981.22;5028901;28;20465;-84
2022/09/05 05:29:01;;;;;;;2.97;2.55;;;;;;;22.88;59.61;101999.13;5013567;28;20029;-85
2022/09/05 05:31:33;;;;;;;2.90;2.65;;;;;;;22.88;59.01;102001.78;5003155;28;20406;-85
2022/09/05 05:34:32;;;;;;;3.08;2.78;;;;;;;22.90;59.00;102010.72;5008229;28;20054;-84
2022/09/05 05:37:03;;;;;;;3.75;2.70;;;;;;;22.96;59.10;102009.13;4993934;28;20407;-84
2022/09/05 05:39:29;;;;;;;5.10;2.55;;;;;;;22.94;59.11;102007.25;5033103;28;20029;-85
2022/09/05 05:41:56;;;;;;;2.95;2.60;;;;;;;22.95;59.12;102019.72;5013431;28;20063;-84
2022/09/05 05:44:29;;;;;;;3.00;2.80;;;;;;;22.94;59.00;102023.25;5000737;28;20026;-84
2022/09/05 05:47:20;;;;;;;4.03;2.70;;;;;;;22.85;59.12;102012.38;5028231;28;20071;-84
2022/09/05 05:50:01;;;;;;;2.63;2.40;;;;;;;22.93;58.81;102041.00;5019083;28;20033;-85
2022/09/05 05:52:44;;;;;;;3.10;2.80;;;;;;;22.86;59.25;102027.47;5030055;28;20033;-83
2022/09/05 05:55:52;;;;;;;3.97;2.97;;;;;;;22.91;59.07;102032.06;4991989;28;20034;-86
2022/09/05 05:58:47;;;;;;;3.50;2.60;;;;;;;22.91;59.23;102045.38;5015106;28;20529;-85
2022/09/05 06:01:31;;;;;;;4.35;2.60;;;;;;;22.94;59.07;102041.88;5030578;28;20052;-85
2022/09/05 06:04:42;;;;;;;3.50;2.50;;;;;;;22.95;58.97;102043.72;4996414;28;20029;-85
2022/09/05 06:07:27;;;;;;;4.90;2.80;;;;;;;22.72;59.17;102017.41;4998878;28;20037;-86
2022/09/05 06:10:32;;;;;;;4.82;2.70;;;;;;;22.89;58.33;102056.88;5021942;28;20539;-86
2022/09/05 06:13:38;;;;;;;4.35;2.88;;;;;;;22.52;58.88;101994.72;5016216;28;20170;-88
2022/09/05 06:16:28;;;;;;;2.97;2.60;;;;;;;22.90;59.11;102062.25;5012988;28;20473;-85
2022/09/05 06:19:40;;;;;;;2.95;2.60;;;;;;;22.82;58.29;102058.50;5031040;28;20025;-86
2022/09/05 06:23:14;;;;;;;3.83;2.45;;;;;;;22.29;58.40;101972.88;4996714;28;20486;-87
2022/09/05 06:26:18;;;;;;;2.70;2.47;;;;;;;22.84;59.33;102064.75;4948579;28;20039;-86
2022/09/05 06:29:02;;;;;;;2.70;2.25;;;;;;;22.90;58.97;102066.66;4949148;29;20117;-86
2022/09/05 06:31:54;;;;;;;4.10;2.78;;;;;;;22.66;59.08;102027.91;4944211;28;20043;-85
2022/09/05 06:34:47;;;;;;;3.15;2.47;;;;;;;22.88;59.17;102076.38;4949861;28;20485;-85
2022/09/05 06:37:24;;;;;;;4.05;2.60;;;;;;;22.87;59.21;102075.47;4995425;28;20033;-84
2022/09/05 06:40:16;;;;;;;3.20;2.67;;;;;;;22.83;59.07;102062.94;5001230;28;20056;-84
2022/09/05 06:43:03;;;;;;;2.88;2.60;;;;;;;22.89;59.16;102087.06;4999807;28;20476;-86
2022/09/05 06:45:44;;;;;;;2.80;2.58;;;;;;;22.85;59.14;102086.97;5014785;28;20025;-85
2022/09/05 06:48:47;;;;;;;3.42;2.55;;;;;;;22.86;59.23;102091.41;5029567;28;20482;-86
2022/09/05 06:51:36;;;;;;;3.28;2.58;;;;;;;22.83;59.16;102096.69;4984661;28;20069;-85
2022/09/05 06:54:28;;;;;;;2.88;2.50;;;;;;;22.76;59.19;102085.88;5030711;28;20029;-85
2022/09/05 06:57:18;;;;;;;3.35;2.60;;;;;;;22.76;58.52;102104.50;5029973;28;20104;-85
2022/09/05 06:59:55;;;;;;;3.30;2.30;;;;;;;22.54;58.15;102075.53;5013381;28;20022;-86
2022/09/05 07:02:33;;;;;;;6.90;2.70;;;;;;;22.45;57.97;102070.88;5029851;28;20018;-85
2022/09/05 07:05:13;;;;;;;4.82;2.40;;;;;;;22.67;58.42;102100.72;5035999;28;20021;-85
2022/09/05 07:07:50;;;;;;;3.45;2.80;;;;;;;22.48;57.69;102078.03;5029307;28;20025;-85
2022/09/05 07:10:28;;;;;;;2.67;2.45;;;;;;;22.38;57.82;102063.59;5002222;28;20017;-84
2022/09/05 07:13:16;;;;;;;3.35;2.50;;;;;;;22.28;58.39;102053.56;5018830;28;20510;-84
2022/09/05 07:15:59;;;;;;;4.00;2.53;;;;;;;22.64;58.19;102119.28;5020523;28;20142;-82
2022/09/05 07:18:31;;;;;;;3.00;2.67;;;;;;;22.68;58.22;102105.19;5008487;28;20021;-85
2022/09/05 07:21:34;;;;;;;4.97;2.63;;;;;;;22.56;57.36;102100.44;5034848;28;20129;-83
2022/09/05 07:24:10;;;;;;;3.30;2.60;;;;;;;22.63;58.35;102096.19;5047419;28;20021;-84
2022/09/05 07:26:40;;;;;;;2.83;2.57;;;;;;;22.59;57.81;102111.19;5034117;28;20022;-84
2022/09/05 07:29:06;;;;;;;4.43;2.60;;;;;;;22.55;57.72;102114.63;5013985;28;20108;-84
2022/09/05 07:31:35;;;;;;;2.92;2.47;;;;;;;22.60;57.82;102112.06;4999343;28;20067;-85
2022/09/05 07:34:27;;;;;;;5.85;2.60;;;;;;;22.50;57.34;102119.84;5033632;28;20415;-85
2022/09/05 07:36:59;;;;;;;2.60;2.38;;;;;;;22.60;57.67;102120.06;5015071;28;20072;-86
2022/09/05 07:39:31;;;;;;;3.13;2.30;;;;;;;22.66;57.85;102121.13;4996390;28;20495;-84
2022/09/05 07:41:59;;;;;;;3.15;2.70;;;;;;;22.55;57.43;102115.50;5011409;28;20026;-86
2022/09/05 07:44:37;;;;;;;2.75;2.50;;;;;;;22.56;57.85;102100.44;5012400;28;20025;-83
2022/09/05 07:47:30;;;;;;;3.03;2.72;;;;;;;22.73;57.43;102123.09;5026594;28;20017;-84
2022/09/05 07:49:58;;;;;;;4.32;2.58;;;;;;;22.67;57.81;102104.28;5031765;28;20061;-84
2022/09/05 07:52:26;;;;;;;3.45;2.80;;;;;;;22.67;57.69;102101.63;5036251;28;20024;-84
2022/09/05 07:54:52;;;;;;;4.72;2.60;;;;;;;22.70;57.28;102106.13;5044442;28;20072;-85
2022/09/05 07:57:25;;;;;;;2.65;2.25;;;;;;;22.72;57.48;102117.72;5035833;28;20030;-84
2022/09/05 07:59:53;;;;;;;5.38;2.75;;;;;;;22.61;57.20;102098.81;5016735;28;20029;-85
2022/09/05 08:02:19;;;;;;;3.28;2.40;;;;;;;22.70;57.37;102111.44;5034409;28;20025;-84
2022/09/05 08:04:45;;;;;;;2.53;2.33;;;;;;;22.80;57.71;102115.25;5034163;28;20059;-84
2022/09/05 08:07:20;;;;;;;2.55;2.35;;;;;;;22.70;57.87;102092.81;5016271;28;20499;-84
2022/09/05 08:09:49;;;;;;;3.50;2.38;;;;;;;22.82;57.89;102110.84;5018648;28;20458;-85
2022/09/05 08:12:36;;;;;;;3.55;2.50;;;;;;;22.86;57.83;102104.72;5016392;28;20030;-85
2022/09/05 08:15:08;;;;;;;4.10;2.72;;;;;;;22.66;57.98;102072.28;5015171;28;20453;-84
2022/09/05 08:18:04;;;;;;;2.72;2.45;;;;;;;22.84;57.74;102098.47;5022091;28;20075;-85
2022/09/05 08:20:51;;;;;;;3.05;2.50;;;;;;;22.79;57.14;102102.78;5009788;28;20030;-83
2022/09/05 08:23:27;;;;;;;3.85;2.50;;;;;;;22.81;58.14;102099.28;5033563;28;20029;-86
2022/09/05 08:25:57;;;;;;;2.60;2.40;;;;;;;22.81;57.86;102103.72;5030919;28;20036;-84
2022/09/05 08:28:50;;;;;;;2.95;2.28;;;;;;;22.80;57.96;102116.16;5014094;28;20458;-84
2022/09/05 08:31:24;;;;;;;3.53;2.75;;;;;;;22.68;57.62;102107.84;5033121;28;20036;-84
2022/09/05 08:33:52;;;;;;;2.70;2.40;;;;;;;22.69;58.41;102105.22;5033168;28;20022;-84
2022/09/05 08:36:35;;;;;;;3.50;2.40;;;;;;;22.75;57.97;102118.72;5014931;28;20033;-85
2022/09/05 08:39:02;;;;;;;2.97;2.50;;;;;;;22.82;57.94;102117.09;5016179;28;20091;-84
2022/09/05 08:42:13;;;;;;;2.50;2.22;;;;;;;22.79;57.51;102118.78;5016135;28;20482;-85
2022/09/05 08:44:49;;;;;;;4.25;2.60;;;;;;;22.77;57.94;102118.72;5005821;28;20038;-83
2022/09/05 08:47:28;;;;;;;4.43;2.67;;;;;;;22.79;57.53;102118.78;4999366;28;20029;-84
2022/09/05 08:50:15;;;;;;;2.78;2.28;;;;;;;22.82;57.74;102127.75;5015118;28;20022;-85
2022/09/05 08:53:03;;;;;;;4.88;2.47;;;;;;;22.82;57.63;102110.84;5033960;28;20037;-85
2022/09/05 08:55:50;;;;;;;3.60;2.78;;;;;;;22.81;57.70;102106.41;5033426;28;20041;-84
2022/09/05 08:58:54;;;;;;;2.65;2.45;;;;;;;22.85;57.72;102097.63;5011936;28;20040;-84
2022/09/05 09:01:45;;;;;;;3.17;2.60;;;;;;;22.86;57.83;102103.00;5033304;28;20022;-84
2022/09/05 09:04:29;;;;;;;3.28;2.50;;;;;;;22.88;57.85;102103.94;5032856;28;20023;-85
2022/09/05 09:07:20;;;;;;;2.53;2.30;;;;;;;22.82;57.47;102102.84;5034726;28;20041;-88
2022/09/05 09:09:52;;;;;;;4.97;2.40;;;;;;;22.83;56.46;102118.00;5013117;28;20025;-83
2022/09/05 09:12:27;;;;;;;3.83;2.47;;;;;;;22.74;57.17;102111.56;5032281;28;20083;-83
2022/09/05 09:14:58;;;;;;;3.45;2.22;;;;;;;22.68;57.46;102116.72;5031598;28;20026;-83
2022/09/05 09:17:25;;;;;;;5.63;2.17;;;;;;;22.77;58.08;102117.00;5024507;28;20034;-84
2022/09/05 09:20:05;;;;;;;4.20;2.40;;;;;;;22.76;58.53;102131.16;5034834;28;20029;-84
2022/09/05 09:22:57;;;;;;;4.80;2.30;;;;;;;22.76;58.51;102133.81;5012894;28;20053;-84
2022/09/05 09:25:26;;;;;;;4.18;2.08;;;;;;;22.67;58.75;102114.03;5016934;28;20030;-83
2022/09/05 09:27:55;;;;;;;2.45;2.20;;;;;;;22.66;58.92;102121.13;5026366;28;20494;-84
2022/09/05 09:30:21;;;;;;;3.75;2.33;;;;;;;22.62;58.93;102105.91;5012170;28;20037;-80
2022/09/05 09:32:47;;;;;;;;;;;;;;;22.81;59.43;102139.25;5014530;28;20033;-80
2022/09/05 09:35:25;;;;;;;3.72;2.33;;;;;;;22.76;59.40;102140.91;5014065;28;20386;-81
2022/09/05 09:38:12;;;;;;;5.72;2.10;;;;;;;22.81;59.34;102147.25;5016877;28;20045;-81
2022/09/05 09:40:38;;;;;;;2.67;1.98;;;;;;;22.85;59.39;102133.16;5011413;28;20087;-81
2022/09/05 09:43:16;;;;;;;3.88;2.33;;;;;;;22.95;59.15;102139.63;5031138;28;20491;-80
2022/09/05 09:46:10;;;;;;;4.13;2.20;;;;;;;22.91;59.37;102146.63;5028561;28;20033;-81
2022/09/05 09:49:02;;;;;;;3.42;2.13;;;;;;;22.89;59.45;102121.69;5013838;28;20021;-82
2022/09/05 09:51:52;;;;;;;3.63;2.20;;;;;;;22.94;59.22;102132.47;5029379;28;20080;-82
2022/09/05 09:54:42;;;;;;;3.85;1.92;;;;;;;22.93;59.54;102130.69;5029555;28;20037;-81
2022/09/05 09:57:10;;;;;;;3.85;2.33;;;;;;;22.93;59.62;102117.34;5033544;28;20026;-81
2022/09/05 10:00:01;;;;;;;3.35;2.10;;;;;;;23.00;59.45;102116.63;5032128;28;20033;-80
2022/09/05 10:03:05;;;;;;;5.70;2.28;;;;;;;23.07;59.36;102120.38;5006663;28;20025;-82
2022/09/05 10:05:30;;;;;;;4.43;2.10;;;;;;;22.97;59.78;102121.91;5033122;28;20060;-81
2022/09/05 10:08:14;;;;;;;6.30;2.03;;;;;;;22.87;60.05;102130.53;5033777;28;20487;-84
2022/09/05 10:11:19;;;;;;;3.28;2.30;;;;;;;23.00;59.92;102126.41;5012869;28;20093;-83
2022/09/05 10:14:01;;;;;;;3.78;2.10;;;;;;;22.76;59.83;102111.63;5014945;28;20029;-81
2022/09/05 10:16:45;;;;;;;3.72;1.83;;;;;;;22.94;59.83;102125.41;5037220;28;20025;-81
2022/09/05 10:19:29;;;;;;;2.72;2.00;;;;;;;22.86;59.90;102105.66;5032865;28;20044;-81
2022/09/05 10:22:03;;;;;;;3.58;2.08;;;;;;;23.05;59.64;102117.69;5029300;28;20519;-82
2022/09/05 10:24:47;;;;;;;2.53;2.20;;;;;;;22.97;60.02;102124.56;5009862;28;20060;-81
2022/09/05 10:27:27;;;;;;;4.30;2.08;;;;;;;22.98;59.99;102124.59;5031172;28;20124;-80
2022/09/05 10:30:11;;;;;;;4.57;1.95;;;;;;;23.02;59.97;102127.38;5041156;28;20029;-82
2022/09/05 10:32:45;;;;;;;15.57;2.88;;;;;;;22.98;60.95;102119.25;5018463;28;20029;-91
2022/09/05 10:35:11;;;;;;;48.95;4.70;;;;;;;23.00;61.26;102127.28;5042004;28;20040;-81
2022/09/05 10:37:40;;;;;;;58.88;5.68;;;;;;;22.98;61.14;102124.59;5010884;28;20120;-82
2022/09/05 10:40:10;;;;;;;53.15;5.78;;;;;;;23.03;61.25;102123.84;5026721;28;20116;-82
2022/09/05 10:42:57;;;;;;;49.72;5.43;;;;;;;23.07;61.11;102134.63;5030247;28;20021;-83
2022/09/05 10:45:55;;;;;;;42.67;6.07;;;;;;;23.06;60.95;102124.81;5012610;28;20029;-84
2022/09/05 10:48:20;;;;;;;;;;;;;;;23.04;60.91;102117.66;5014449;28;20076;-83
2022/09/05 10:51:07;;;;;;;34.30;4.53;;;;;;;22.90;60.88;102110.19;5030568;28;19952;-82
2022/09/05 10:53:59;;;;;;;27.52;4.55;;;;;;;22.87;60.89;102087.91;5005986;28;20029;-83
2022/09/05 10:56:30;;;;;;;28.25;4.70;;;;;;;22.83;60.64;102086.91;5011567;28;20033;-81
2022/09/05 10:59:19;;;;;;;21.27;3.92;;;;;;;22.89;60.90;102104.81;5011024;28;20486;-83
2022/09/05 11:02:02;;;;;;;22.17;3.45;;;;;;;23.03;60.92;102116.75;5026466;28;20119;-84
2022/09/05 11:04:49;;;;;;;28.27;4.50;;;;;;;23.04;60.63;102113.22;5012800;28;20168;-83
2022/09/05 11:07:40;;;;;;;19.20;3.55;;;;;;;22.94;60.78;102104.09;5007830;28;20388;-83
2022/09/05 11:10:14;;;;;;;20.30;3.70;;;;;;;22.94;61.06;102120.06;5028669;28;20079;-83
2022/09/05 11:12:46;;;;;;;17.20;3.08;;;;;;;22.93;61.00;102122.69;5010256;28;20026;-84
2022/09/05 11:15:34;;;;;;;12.00;3.20;;;;;;;22.92;60.98;102118.22;5012709;28;20025;-83
2022/09/05 11:18:02;;;;;;;13.25;3.22;;;;;;;22.88;60.88;102108.34;5030094;28;20454;-84
2022/09/05 11:20:49;;;;;;;14.18;3.22;;;;;;;23.04;60.59;102121.22;4993872;28;20036;-84
2022/09/05 11:23:30;;;;;;;11.55;3.17;;;;;;;22.81;60.84;102093.06;5023253;28;20048;-83
2022/09/05 11:26:03;;;;;;;14.80;3.35;;;;;;;22.92;60.84;102108.47;5030390;28;20045;-84
2022/09/05 11:28:38;;;;;;;11.63;2.95;;;;;;;22.92;60.95;102115.53;5029016;28;20061;-84
2022/09/05 11:31:10;;;;;;;9.63;3.00;;;;;;;22.83;61.07;102099.34;5010124;28;20036;-85
2022/09/05 11:33:48;;;;;;;10.27;2.78;;;;;;;22.74;60.84;102076.06;5017674;28;20049;-84
2022/09/05 11:36:22;;;;;;;9.93;3.10;;;;;;;22.99;60.59;102112.19;5026532;28;20514;-84
2022/09/05 11:39:03;;;;;;;10.63;3.25;;;;;;;23.00;60.52;102111.31;5010524;28;20334;-83
2022/09/05 11:41:32;;;;;;;7.10;3.22;;;;;;;22.96;60.33;102091.69;5011082;28;20029;-84
2022/09/05 11:44:28;;;;;;;11.55;3.20;;;;;;;22.96;60.39;102104.09;5031182;28;20391;-84
2022/09/05 11:47:12;;;;;;;6.70;2.47;;;;;;;22.94;60.74;102113.81;4965371;28;20033;-83
2022/09/05 11:50:00;;;;;;;9.27;2.92;;;;;;;22.92;60.65;102118.22;5027112;28;20036;-80
2022/09/05 11:52:51;;;;;;;9.15;2.97;;;;;;;23.01;60.30;102120.22;5028992;28;20045;-80
2022/09/05 11:55:33;;;;;;;8.77;2.72;;;;;;;22.97;60.51;102114.81;5030661;28;20033;-81
2022/09/05 11:58:34;;;;;;;6.13;2.40;;;;;;;23.07;60.26;102115.97;5033619;28;20029;-81
2022/09/05 12:01:00;;;;;;;9.82;2.83;;;;;;;22.96;60.42;102114.75;5016091;28;20025;-80
2022/09/05 12:03:55;;;;;;;5.95;2.80;;;;;;;22.79;60.51;102078.81;5034090;28;20101;-79
2022/09/05 12:06:56;;;;;;;7.70;2.53;;;;;;;23.02;60.26;102106.06;5029188;28;20396;-80
2022/09/05 12:09:24;;;;;;;6.32;2.50;;;;;;;22.90;60.56;102102.22;5031785;28;20110;-81
2022/09/05 12:12:07;;;;;;;5.13;2.35;;;;;;;22.90;60.66;102110.19;5034330;28;20029;-81
2022/09/05 12:14:57;;;;;;;8.45;2.67;;;;;;;22.94;60.52;102101.44;5034080;28;20025;-82
2022/09/05 12:17:38;;;;;;;5.55;2.40;;;;;;;22.82;60.62;102081.53;5033601;28;20018;-82
2022/09/05 12:20:24;;;;;;;6.93;2.60;;;;;;;22.95;60.58;102095.22;5031292;28;20652;-82
2022/09/05 12:23:27;;;;;;;7.25;2.72;;;;;;;22.81;60.48;102079.75;5032351;28;20094;-82
2022/09/05 12:25:59;;;;;;;6.28;2.72;;;;;;;22.92;60.72;102092.50;5033347;28;20018;-81
2022/09/05 12:28:45;;;;;;;4.72;2.47;;;;;;;22.83;60.76;102078.94;5014049;28;20596;-83
2022/09/05 12:31:28;;;;;;;6.20;2.60;;;;;;;22.71;60.32;102050.25;5012697;28;20547;-82
2022/09/05 12:33:54;;;;;;;8.90;3.00;;;;;;;22.97;60.47;102095.25;5013825;28;20100;-82
2022/09/05 12:36:34;;;;;;;;;;;;;;;23.02;60.30;102087.41;5032453;28;20025;-83